Time;durP1;ratioP1;P1;durP2;ratioP2;P2;SDS_P1;SDS_P2;PMS_P1;PMS_P2;Temp;Humidity;BMP_temperature;BMP_pressure;BME280_temperature;BME280_humidity;BME280_pressure;Samples;Min_cycle;Max_cycle;Signal;HPM_P1;HPM_P2
2021/04/25 03:21:28;;;;;;;7.53;6.83;;;8.30;99.90;;;;;;5809682;23;20471;-65
2021/04/25 03:23:54;;;;;;;14.80;5.80;;;8.30;99.90;;;;;;4976759;28;20434;-65
2021/04/25 03:26:20;;;;;;;7.60;5.97;;;8.30;99.90;;;;;;4976642;28;20458;-65
2021/04/25 03:28:46;;;;;;;8.20;6.50;;;8.20;99.90;;;;;;4976983;28;20841;-67
2021/04/25 03:31:12;;;;;;;7.30;5.70;;;8.30;99.90;;;;;;4976394;28;20482;-66
2021/04/25 03:33:39;;;;;;;8.20;5.20;;;8.20;99.90;;;;;;4976580;28;20467;-67
2021/04/25 03:36:05;;;;;;;8.03;6.23;;;8.20;99.90;;;;;;4976036;28;20459;-67
2021/04/25 03:38:32;;;;;;;6.87;5.80;;;8.20;99.90;;;;;;4976314;28;20459;-67
2021/04/25 03:40:58;;;;;;;7.20;6.00;;;8.20;99.90;;;;;;4976274;28;20451;-66
2021/04/25 03:43:25;;;;;;;7.37;5.97;;;8.20;99.90;;;;;;4976058;28;20824;-67
2021/04/25 03:45:51;;;;;;;7.67;6.53;;;8.20;99.90;;;;;;4976065;28;20523;-67
2021/04/25 03:48:17;;;;;;;9.83;6.40;;;8.20;99.90;;;;;;4976283;28;20458;-66
2021/04/25 03:50:44;;;;;;;6.97;6.27;;;8.10;99.90;;;;;;4976709;28;20486;-67
2021/04/25 03:53:11;;;;;;;8.17;5.80;;;8.10;99.90;;;;;;4976180;28;21052;-67
2021/04/25 03:55:38;;;;;;;7.73;5.80;;;8.10;99.90;;;;;;4977874;28;20451;-67
2021/04/25 03:58:04;;;;;;;7.07;5.70;;;8.00;99.90;;;;;;4978348;28;20972;-66
2021/04/25 04:00:31;;;;;;;7.67;5.60;;;7.90;99.90;;;;;;4976063;28;20436;-66
2021/04/25 04:02:57;;;;;;;12.47;7.00;;;7.90;99.90;;;;;;4976588;28;20478;-66
2021/04/25 04:05:24;;;;;;;8.27;6.00;;;7.80;99.90;;;;;;4975957;28;20443;-66
2021/04/25 04:07:50;;;;;;;9.80;5.73;;;7.80;99.90;;;;;;4975844;28;20454;-66
2021/04/25 04:10:16;;;;;;;10.47;6.33;;;7.70;99.90;;;;;;4976382;28;20478;-66
2021/04/25 04:12:44;;;;;;;9.17;6.20;;;7.70;99.90;;;;;;4975809;28;20485;-66
2021/04/25 04:15:10;;;;;;;8.10;6.23;;;7.60;99.90;;;;;;4975608;28;20454;-66
2021/04/25 04:17:37;;;;;;;8.90;6.33;;;7.60;99.90;;;;;;4975363;28;20941;-66
2021/04/25 04:20:05;;;;;;;12.17;6.00;;;7.50;99.90;;;;;;4975572;28;20813;-66
2021/04/25 04:22:32;;;;;;;8.23;5.90;;;7.60;99.90;;;;;;4975378;28;20483;-66
2021/04/25 04:24:58;;;;;;;10.30;6.60;;;7.50;99.90;;;;;;4975808;28;20521;-66
2021/04/25 04:27:24;;;;;;;8.07;5.77;;;7.50;99.90;;;;;;4975836;28;20462;-66
2021/04/25 04:29:51;;;;;;;8.40;5.83;;;7.50;99.90;;;;;;4975234;28;20462;-66
2021/04/25 04:32:17;;;;;;;13.50;7.13;;;7.60;99.90;;;;;;4975214;28;21064;-66
2021/04/25 04:34:44;;;;;;;8.83;6.67;;;7.60;99.90;;;;;;4975009;28;20945;-67
2021/04/25 04:37:10;;;;;;;13.63;6.07;;;7.60;99.90;;;;;;4975062;28;20796;-67
2021/04/25 04:39:36;;;;;;;9.50;6.50;;;7.70;99.90;;;;;;4975318;28;20454;-68
2021/04/25 04:42:03;;;;;;;9.57;6.67;;;7.70;99.90;;;;;;4975237;28;20471;-68
2021/04/25 04:44:29;;;;;;;8.80;6.70;;;7.70;99.90;;;;;;4974820;28;20513;-69
2021/04/25 04:46:56;;;;;;;7.80;7.00;;;7.80;99.90;;;;;;4975261;28;20203;-68
2021/04/25 04:49:22;;;;;;;9.93;6.60;;;7.80;99.90;;;;;;4975261;28;20462;-68
2021/04/25 04:51:48;;;;;;;9.87;7.87;;;7.80;99.90;;;;;;4975006;28;20482;-68
2021/04/25 04:54:14;;;;;;;10.00;6.97;;;7.80;99.90;;;;;;4974942;28;20459;-68
2021/04/25 04:56:41;;;;;;;10.53;6.83;;;7.70;99.90;;;;;;4975252;28;20455;-68
2021/04/25 04:59:07;;;;;;;10.17;6.70;;;7.70;99.90;;;;;;4974807;28;20937;-68
2021/04/25 05:01:33;;;;;;;7.43;6.70;;;7.80;99.90;;;;;;4975001;28;20473;-68
2021/04/25 05:04:00;;;;;;;7.63;6.83;;;7.80;99.90;;;;;;4975095;28;20467;-68
2021/04/25 05:06:27;;;;;;;7.73;6.67;;;7.90;99.90;;;;;;4974988;28;20482;-68
2021/04/25 05:08:53;;;;;;;9.87;7.20;;;7.90;99.90;;;;;;4975000;28;20458;-68
2021/04/25 05:11:19;;;;;;;9.90;7.40;;;8.00;99.90;;;;;;4974617;28;20482;-67
2021/04/25 05:13:45;;;;;;;9.33;7.07;;;8.00;99.90;;;;;;4974985;28;20460;-68
2021/04/25 05:16:11;;;;;;;10.43;7.23;;;8.10;99.90;;;;;;4975000;28;20521;-68
2021/04/25 05:18:39;;;;;;;7.40;6.70;;;8.10;99.90;;;;;;4974797;28;20510;-69
2021/04/25 05:21:06;;;;;;;9.77;6.87;;;8.10;99.90;;;;;;4974695;28;20451;-67
2021/04/25 05:23:33;;;;;;;9.43;7.10;;;8.10;99.90;;;;;;4974968;28;20443;-67
2021/04/25 05:25:59;;;;;;;10.80;7.53;;;8.20;99.90;;;;;;4975250;28;20461;-67
2021/04/25 05:28:25;;;;;;;10.80;7.60;;;8.20;99.90;;;;;;4974966;28;20459;-67
2021/04/25 05:30:51;;;;;;;7.50;6.37;;;8.30;99.90;;;;;;4975250;28;20482;-70
2021/04/25 05:33:18;;;;;;;7.73;7.00;;;8.50;99.90;;;;;;4978657;28;20549;-67
2021/04/25 05:35:44;;;;;;;10.30;8.20;;;8.70;99.90;;;;;;4978642;28;20459;-68
2021/04/25 05:38:11;;;;;;;10.60;7.03;;;9.00;99.90;;;;;;4979051;28;20480;-69
2021/04/25 05:40:38;;;;;;;7.33;6.57;;;9.20;99.90;;;;;;4979038;28;20458;-68
2021/04/25 05:43:04;;;;;;;7.80;6.70;;;9.40;99.90;;;;;;4978306;28;20880;-69
2021/04/25 05:45:30;;;;;;;10.30;7.70;;;9.40;99.90;;;;;;4978525;28;20458;-68
2021/04/25 05:47:58;;;;;;;8.50;7.20;;;9.70;99.90;;;;;;4978718;28;20459;-69
2021/04/25 05:50:29;;;;;;;9.53;8.20;;;9.80;99.90;;;;;;4978482;28;20485;-70
2021/04/25 05:52:55;;;;;;;8.43;7.63;;;9.90;99.90;;;;;;4978344;28;20474;-68
2021/04/25 05:55:23;;;;;;;9.30;7.80;;;10.10;99.90;;;;;;4978045;28;20856;-69
2021/04/25 05:57:49;;;;;;;11.73;8.03;;;10.40;99.90;;;;;;4978022;28;20979;-68
2021/04/25 06:00:18;;;;;;;8.80;7.90;;;10.50;99.90;;;;;;4978108;28;20949;-68
2021/04/25 06:02:45;;;;;;;9.30;8.40;;;10.80;99.90;;;;;;4978758;28;20482;-69
2021/04/25 06:05:11;;;;;;;11.67;8.57;;;10.90;99.90;;;;;;4978138;28;20463;-69
2021/04/25 06:07:37;;;;;;;9.10;7.87;;;11.20;99.90;;;;;;4977279;28;20457;-68
2021/04/25 06:10:04;;;;;;;10.27;8.37;;;11.60;99.90;;;;;;4977737;28;20909;-68
2021/04/25 06:12:32;;;;;;;14.00;7.87;;;11.90;99.90;;;;;;4977996;28;20474;-69
2021/04/25 06:14:58;;;;;;;9.40;7.07;;;12.40;99.90;;;;;;4978029;28;20466;-69
2021/04/25 06:17:25;;;;;;;12.20;7.40;;;13.10;99.90;;;;;;4977707;28;20454;-69
2021/04/25 06:19:51;;;;;;;9.30;7.87;;;13.60;99.90;;;;;;4977836;28;20451;-69
2021/04/25 06:22:17;;;;;;;8.80;7.90;;;14.30;99.90;;;;;;4977412;28;20853;-69
2021/04/25 06:24:43;;;;;;;9.07;8.17;;;14.80;99.90;;;;;;4977563;28;20457;-68
2021/04/25 06:27:10;;;;;;;9.40;7.67;;;14.90;95.60;;;;;;4977833;28;20818;-68
2021/04/25 06:29:37;;;;;;;7.43;6.60;;;14.90;99.90;;;;;;4977397;28;21011;-69
2021/04/25 06:32:04;;;;;;;10.27;9.17;;;15.80;99.90;;;;;;4977794;28;20490;-68
2021/04/25 06:34:30;;;;;;;10.33;8.53;;;16.10;93.00;;;;;;4977446;28;20478;-67
2021/04/25 06:36:57;;;;;;;9.77;8.70;;;16.30;95.40;;;;;;4977472;28;20486;-67
2021/04/25 06:39:23;;;;;;;10.17;8.77;;;16.40;91.20;;;;;;4977117;28;20465;-67
2021/04/25 06:41:49;;;;;;;9.33;8.40;;;16.60;91.90;;;;;;4977266;28;20482;-69
2021/04/25 06:44:15;;;;;;;10.80;9.00;;;17.20;91.20;;;;;;4975734;28;20945;-69
2021/04/25 06:46:42;;;;;;;16.87;15.40;;;17.00;84.70;;;;;;4977060;28;20829;-69
2021/04/25 06:49:08;;;;;;;11.77;10.67;;;17.60;89.70;;;;;;4977236;28;20462;-69
2021/04/25 06:51:35;;;;;;;26.83;23.87;;;17.70;81.90;;;;;;4977304;28;20486;-69
2021/04/25 06:54:01;;;;;;;50.37;44.03;;;18.00;78.50;;;;;;4977282;28;20455;-68
2021/04/25 06:56:27;;;;;;;17.43;15.63;;;18.10;82.00;;;;;;4976975;28;20814;-69
2021/04/25 06:58:55;;;;;;;18.93;17.03;;;18.10;76.80;;;;;;4977102;28;20458;-69
2021/04/25 07:01:21;;;;;;;13.90;12.47;;;17.80;77.00;;;;;;4977104;28;20478;-68
2021/04/25 07:03:49;;;;;;;33.23;28.33;;;18.10;75.10;;;;;;4977038;28;20443;-68
2021/04/25 07:06:17;;;;;;;38.27;34.37;;;17.90;73.70;;;;;;4977038;28;20466;-68
2021/04/25 07:08:43;;;;;;;18.50;16.67;;;17.80;76.80;;;;;;4976913;28;20459;-68
2021/04/25 07:11:10;;;;;;;13.40;12.00;;;17.30;73.80;;;;;;4976732;28;20544;-68
2021/04/25 07:13:36;;;;;;;18.10;16.20;;;18.00;77.30;;;;;;4976592;28;20451;-68
2021/04/25 07:16:02;;;;;;;14.27;11.97;;;17.90;75.80;;;;;;4977001;28;20451;-67
2021/04/25 07:18:28;;;;;;;18.83;16.87;;;18.10;72.60;;;;;;4976329;28;20458;-68
2021/04/25 07:20:55;;;;;;;15.30;13.70;;;18.50;74.60;;;;;;4976785;28;20479;-67
2021/04/25 07:23:24;;;;;;;12.33;11.00;;;18.60;73.20;;;;;;4976255;28;20485;-68
2021/04/25 07:25:50;;;;;;;13.33;11.90;;;18.70;70.70;;;;;;4976543;28;20457;-68
2021/04/25 07:28:17;;;;;;;16.77;13.40;;;19.30;71.60;;;;;;4976342;28;20978;-68
2021/04/25 07:30:43;;;;;;;15.40;11.80;;;19.50;72.80;;;;;;4976420;28;20489;-68
2021/04/25 07:33:10;;;;;;;14.33;12.23;;;19.80;67.70;;;;;;4976375;28;20501;-67
2021/04/25 07:35:36;;;;;;;14.73;13.30;;;19.70;66.80;;;;;;4976111;28;20458;-68
2021/04/25 07:38:03;;;;;;;13.00;11.63;;;19.20;69.50;;;;;;4976415;28;20458;-67
2021/04/25 07:40:29;;;;;;;12.40;11.10;;;19.50;67.70;;;;;;4976326;28;20459;-66
2021/04/25 07:42:56;;;;;;;12.83;11.37;;;20.30;64.10;;;;;;4976167;28;20812;-67
2021/04/25 07:45:22;;;;;;;12.90;11.50;;;20.20;62.30;;;;;;4976225;28;20454;-67
2021/04/25 07:47:48;;;;;;;13.90;12.50;;;20.00;64.50;;;;;;4976170;28;20454;-67
2021/04/25 07:50:15;;;;;;;14.90;12.27;;;18.40;61.70;;;;;;4976240;28;20459;-67
2021/04/25 07:52:41;;;;;;;12.00;10.90;;;17.80;68.70;;;;;;4976113;28;20486;-67
2021/04/25 07:55:10;;;;;;;12.67;11.40;;;19.20;68.00;;;;;;4975726;28;20454;-67
2021/04/25 07:57:37;;;;;;;12.97;11.87;;;19.70;65.60;;;;;;4976213;28;20818;-67
2021/04/25 08:00:06;;;;;;;14.50;11.07;;;20.30;62.90;;;;;;4975904;28;20455;-67
2021/04/25 08:02:32;;;;;;;14.07;12.57;;;19.90;64.40;;;;;;4975725;28;20478;-67
2021/04/25 08:04:58;;;;;;;12.47;11.17;;;20.30;63.10;;;;;;4975504;28;20817;-67
2021/04/25 08:07:24;;;;;;;12.70;11.40;;;20.50;62.90;;;;;;4975866;28;20465;-67
2021/04/25 08:09:50;;;;;;;13.33;12.13;;;20.50;63.80;;;;;;4975758;28;20869;-68
2021/04/25 08:12:17;;;;;;;13.10;12.00;;;20.80;62.50;;;;;;4975594;28;20487;-66
2021/04/25 08:14:44;;;;;;;12.43;11.23;;;19.90;62.80;;;;;;4975717;28;20458;-66
2021/04/25 08:17:10;;;;;;;13.93;12.27;;;20.20;62.20;;;;;;4975582;28;20450;-66
2021/04/25 08:19:36;;;;;;;14.00;12.27;;;19.50;67.40;;;;;;4975369;28;20949;-66
2021/04/25 08:22:02;;;;;;;12.57;11.27;;;19.60;63.70;;;;;;4975121;28;20489;-65
2021/04/25 08:24:29;;;;;;;16.90;12.77;;;19.70;67.10;;;;;;4975178;28;20953;-67
2021/04/25 08:26:55;;;;;;;14.00;12.50;;;19.80;64.70;;;;;;4975478;28;20489;-66
2021/04/25 08:29:22;;;;;;;12.67;11.47;;;20.50;65.80;;;;;;4975602;28;20451;-66
2021/04/25 08:31:48;;;;;;;12.77;11.50;;;20.70;63.70;;;;;;4975068;28;20836;-66
2021/04/25 08:34:14;;;;;;;14.53;12.10;;;20.90;61.30;;;;;;4975464;28;20466;-65
2021/04/25 08:36:40;;;;;;;13.47;12.10;;;20.60;60.10;;;;;;4975901;28;20458;-65
2021/04/25 08:39:07;;;;;;;13.03;11.93;;;20.90;64.20;;;;;;4975333;28;20458;-67
2021/04/25 08:41:33;;;;;;;12.30;11.30;;;21.40;63.30;;;;;;4975221;28;20481;-65
2021/04/25 08:44:01;;;;;;;12.57;11.37;;;22.20;56.30;;;;;;4975133;28;20455;-66
2021/04/25 08:46:30;;;;;;;13.37;11.70;;;22.70;62.80;;;;;;4975332;28;20454;-65
2021/04/25 08:48:56;;;;;;;12.33;11.07;;;23.00;56.20;;;;;;4975218;28;20455;-65
2021/04/25 08:51:23;;;;;;;12.70;11.40;;;23.50;56.60;;;;;;4975102;28;20482;-65
2021/04/25 08:53:50;;;;;;;13.43;12.03;;;22.90;55.00;;;;;;4975080;28;20458;-65
2021/04/25 08:56:16;;;;;;;11.47;10.27;;;21.90;55.10;;;;;;4974940;28;20458;-65
2021/04/25 08:58:43;;;;;;;11.87;10.67;;;21.40;55.80;;;;;;4975038;28;20542;-65
2021/04/25 09:01:11;;;;;;;11.10;10.07;;;21.90;58.60;;;;;;4974803;28;20502;-66
2021/04/25 09:03:39;;;;;;;16.60;10.40;;;22.60;57.40;;;;;;4974842;28;20459;-67
2021/04/25 09:06:07;;;;;;;11.97;10.77;;;22.10;54.80;;;;;;4974094;28;20455;-66
2021/04/25 09:08:47;;;;;;;11.73;10.53;;;22.20;56.50;;;;;;4974488;28;20458;-68
2021/04/25 09:11:30;;;;;;;11.37;10.17;;;22.50;54.90;;;;;;4974401;28;21051;-68
2021/04/25 09:14:17;;;;;;;10.93;9.93;;;21.90;56.30;;;;;;4974749;28;20466;-67
2021/04/25 09:16:45;;;;;;;11.03;9.93;;;22.00;56.00;;;;;;4974632;28;20505;-65
2021/04/25 09:19:13;;;;;;;10.20;8.30;;;21.20;56.20;;;;;;4974521;28;20495;-68
2021/04/25 09:21:56;;;;;;;11.80;9.87;;;22.20;56.60;;;;;;4974877;28;20479;-68
2021/04/25 09:24:25;;;;;;;10.17;9.17;;;22.40;55.90;;;;;;4974966;28;20454;-68
2021/04/25 09:26:52;;;;;;;11.60;10.40;;;23.10;54.40;;;;;;4974564;28;20513;-68
2021/04/25 09:29:21;;;;;;;10.77;9.73;;;22.80;53.60;;;;;;4975007;28;20478;-67
2021/04/25 09:31:48;;;;;;;11.93;10.00;;;22.00;54.10;;;;;;4974624;28;20510;-66
2021/04/25 09:34:24;;;;;;;11.83;10.63;;;21.50;55.50;;;;;;4974908;28;20462;-67
2021/04/25 09:36:50;;;;;;;10.37;9.43;;;21.70;58.50;;;;;;4974934;28;20442;-67
2021/04/25 09:39:17;;;;;;;11.80;9.80;;;22.60;58.60;;;;;;4974482;28;20964;-68
2021/04/25 09:41:44;;;;;;;10.80;9.33;;;22.60;55.60;;;;;;4975083;28;20838;-68
2021/04/25 09:44:29;;;;;;;12.60;9.93;;;23.00;54.30;;;;;;4974914;28;20453;-67
2021/04/25 09:46:58;;;;;;;11.00;9.90;;;23.20;54.50;;;;;;4974936;28;20439;-68
2021/04/25 09:49:43;;;;;;;10.80;9.30;;;23.30;53.40;;;;;;4974447;28;20462;-68
2021/04/25 09:52:12;;;;;;;9.67;8.80;;;23.40;53.90;;;;;;4974868;28;20990;-67
2021/04/25 09:54:39;;;;;;;9.63;8.90;;;23.30;53.10;;;;;;4974919;28;20459;-67
2021/04/25 09:57:06;;;;;;;10.17;9.30;;;23.50;52.50;;;;;;4974836;28;20465;-67
2021/04/25 09:59:49;;;;;;;10.73;9.73;;;24.10;55.20;;;;;;4974753;28;20961;-68
2021/04/25 10:02:15;;;;;;;9.80;8.90;;;24.70;50.70;;;;;;4975120;28;20561;-68
2021/04/25 10:04:42;;;;;;;9.23;8.47;;;25.60;49.70;;;;;;4974893;28;20845;-69
2021/04/25 10:07:10;;;;;;;9.30;8.50;;;25.40;47.80;;;;;;4975337;28;20791;-67
2021/04/25 10:09:36;;;;;;;7.80;7.10;;;24.70;48.70;;;;;;4975090;28;20451;-68
2021/04/25 10:12:03;;;;;;;8.17;7.43;;;24.90;51.70;;;;;;4974774;28;20490;-68
2021/04/25 10:14:32;;;;;;;8.67;7.87;;;25.00;48.20;;;;;;4974869;28;20804;-67
2021/04/25 10:16:59;;;;;;;9.17;7.73;;;24.00;46.80;;;;;;4975140;28;20798;-68
2021/04/25 10:19:26;;;;;;;7.47;6.83;;;24.80;52.10;;;;;;4978706;28;20458;-67
2021/04/25 10:21:53;;;;;;;8.57;7.87;;;24.80;50.50;;;;;;4978174;28;20931;-69
2021/04/25 10:24:20;;;;;;;7.90;7.10;;;24.30;46.70;;;;;;4978446;28;20458;-70
2021/04/25 10:26:57;;;;;;;8.00;6.90;;;24.60;48.80;;;;;;4978048;28;20458;-71
2021/04/25 10:29:27;;;;;;;7.50;6.80;;;23.80;49.10;;;;;;4978751;28;20438;-68
2021/04/25 10:32:01;;;;;;;7.87;7.07;;;23.50;50.20;;;;;;4978315;28;20567;-68
2021/04/25 10:34:27;;;;;;;7.93;7.20;;;23.40;48.30;;;;;;4978397;28;20457;-69
2021/04/25 10:37:03;;;;;;;8.30;7.60;;;23.40;48.00;;;;;;4978354;28;20485;-69
2021/04/25 10:39:49;;;;;;;9.00;7.13;;;22.70;48.80;;;;;;4978773;28;20772;-69
2021/04/25 10:42:33;;;;;;;6.73;6.10;;;22.40;50.70;;;;;;4978051;28;20521;-69
2021/04/25 10:45:25;;;;;;;10.60;9.03;;;23.10;51.90;;;;;;4978078;28;20490;-67
2021/04/25 10:48:23;;;;;;;8.37;7.50;;;23.20;46.80;;;;;;4978577;28;20447;-68
2021/04/25 10:50:52;;;;;;;9.50;6.53;;;22.40;48.30;;;;;;4977665;28;20968;-69
2021/04/25 10:53:27;;;;;;;5.80;5.30;;;22.50;51.20;;;;;;4977496;28;21011;-68
2021/04/25 10:56:29;;;;;;;7.43;6.60;;;23.00;50.90;;;;;;4978089;28;20449;-69
2021/04/25 10:59:23;;;;;;;8.23;5.87;;;22.40;49.80;;;;;;4973914;28;20461;-68
2021/04/25 11:01:49;;;;;;;5.27;4.63;;;22.60;47.40;;;;;;4975819;28;20482;-69
2021/04/25 11:04:52;;;;;;;5.83;5.23;;;23.10;48.60;;;;;;4977650;28;20458;-68
2021/04/25 11:07:35;;;;;;;6.63;5.93;;;22.20;47.60;;;;;;4956034;28;20948;-68
2021/04/25 11:10:03;;;;;;;7.00;6.30;;;21.80;46.30;;;;;;4977326;28;20949;-69
2021/04/25 11:12:41;;;;;;;6.03;5.40;;;21.90;47.60;;;;;;4977675;28;20886;-68
2021/04/25 11:15:09;;;;;;;5.40;4.90;;;22.00;48.20;;;;;;4977431;28;20443;-69
2021/04/25 11:17:35;;;;;;;6.50;5.90;;;21.80;47.20;;;;;;4977242;28;20820;-68
2021/04/25 11:20:28;;;;;;;5.23;4.70;;;21.60;48.60;;;;;;4977533;28;20443;-68
2021/04/25 11:22:55;;;;;;;5.20;4.70;;;21.40;46.90;;;;;;4976690;28;20475;-68
2021/04/25 11:25:30;;;;;;;6.80;4.80;;;21.20;47.70;;;;;;4976926;28;20827;-69
2021/04/25 11:27:56;;;;;;;5.40;4.27;;;20.50;50.60;;;;;;4976779;28;20454;-69
2021/04/25 11:30:37;;;;;;;8.77;4.63;;;20.60;49.00;;;;;;4975987;28;20506;-68
2021/04/25 11:33:33;;;;;;;6.27;4.70;;;20.40;49.40;;;;;;4976204;28;21051;-69
2021/04/25 11:36:36;;;;;;;5.93;4.77;;;20.70;52.00;;;;;;4976558;28;20458;-69
2021/04/25 11:39:05;;;;;;;5.80;5.10;;;20.60;48.20;;;;;;4919271;29;20990;-69
2021/04/25 11:41:32;;;;;;;5.60;5.07;;;20.50;47.80;;;;;;4919602;29;20477;-69
2021/04/25 11:43:59;;;;;;;5.07;4.60;;;20.10;48.30;;;;;;4949877;28;20447;-69
2021/04/25 11:46:35;;;;;;;5.30;4.47;;;20.40;47.30;;;;;;4980444;28;20455;-69
2021/04/25 11:49:04;;;;;;;4.63;3.63;;;20.30;46.50;;;;;;4977092;28;20457;-69
2021/04/25 11:51:31;;;;;;;7.00;3.93;;;20.50;48.00;;;;;;4976746;28;20486;-69
2021/04/25 11:53:57;;;;;;;4.63;3.90;;;20.70;49.50;;;;;;4976851;28;20510;-68
2021/04/25 11:56:31;;;;;;;4.60;3.73;;;20.40;46.90;;;;;;4976703;28;20458;-69
2021/04/25 11:59:08;;;;;;;7.03;4.10;;;20.40;45.50;;;;;;4977323;28;20447;-69
2021/04/25 12:01:35;;;;;;;4.10;3.80;;;19.90;45.40;;;;;;4976972;28;20544;-68
2021/04/25 12:04:01;;;;;;;4.17;3.60;;;19.60;47.10;;;;;;4975995;28;20459;-68
2021/04/25 12:06:31;;;;;;;4.47;4.03;;;19.00;46.90;;;;;;4976063;28;20455;-68
2021/04/25 12:08:57;;;;;;;4.03;3.40;;;19.30;48.50;;;;;;4976340;28;20459;-68
2021/04/25 12:11:25;;;;;;;3.40;3.20;;;19.50;45.60;;;;;;4976684;28;20493;-68
2021/04/25 12:13:51;;;;;;;4.20;3.77;;;19.80;48.50;;;;;;4976099;28;20462;-68
2021/04/25 12:16:19;;;;;;;5.30;3.30;;;20.00;47.10;;;;;;4975818;28;20490;-69
2021/04/25 12:18:46;;;;;;;4.33;3.60;;;20.20;46.90;;;;;;4975913;28;20490;-69
2021/04/25 12:21:17;;;;;;;4.30;4.00;;;20.60;47.70;;;;;;4975657;28;20451;-68
2021/04/25 12:23:45;;;;;;;4.37;3.80;;;20.80;41.00;;;;;;4975655;28;20926;-69
2021/04/25 12:26:14;;;;;;;4.43;3.40;;;21.00;44.30;;;;;;4975890;28;20500;-68
2021/04/25 12:28:42;;;;;;;4.00;3.27;;;21.00;42.90;;;;;;4975377;28;20973;-68
2021/04/25 12:31:09;;;;;;;4.33;3.50;;;20.60;41.20;;;;;;4975466;28;20880;-68
2021/04/25 12:33:41;;;;;;;4.13;3.77;;;20.10;42.90;;;;;;4975632;28;20508;-69
2021/04/25 12:36:09;;;;;;;3.70;3.40;;;20.10;43.00;;;;;;4975513;28;20455;-68
2021/04/25 12:38:37;;;;;;;4.00;3.60;;;19.70;42.60;;;;;;4975193;28;20953;-68
2021/04/25 12:41:06;;;;;;;4.47;3.20;;;19.80;44.60;;;;;;4975263;28;20455;-67
2021/04/25 12:43:34;;;;;;;3.87;3.47;;;19.40;43.20;;;;;;4975059;28;20545;-68
2021/04/25 12:46:12;;;;;;;5.00;3.40;;;19.90;48.80;;;;;;4975551;28;20466;-68
2021/04/25 12:48:40;;;;;;;3.83;3.47;;;20.30;45.00;;;;;;4975617;28;20497;-68
2021/04/25 12:51:19;;;;;;;4.20;3.90;;;20.20;43.30;;;;;;4975182;28;20526;-68
2021/04/25 12:54:03;;;;;;;5.37;3.77;;;20.10;41.30;;;;;;4975576;28;20461;-68
2021/04/25 12:56:32;;;;;;;5.30;3.37;;;19.90;42.30;;;;;;4973475;28;20822;-70
2021/04/25 12:59:00;;;;;;;3.40;3.10;;;20.10;43.30;;;;;;4974921;28;20937;-69
2021/04/25 13:01:27;;;;;;;5.70;4.10;;;20.40;45.50;;;;;;4975632;28;20521;-70
2021/04/25 13:03:54;;;;;;;5.10;3.30;;;20.30;42.20;;;;;;4975145;28;20514;-70
2021/04/25 13:06:27;;;;;;;3.70;3.40;;;20.30;45.80;;;;;;4974900;28;20454;-69
2021/04/25 13:08:54;;;;;;;3.63;3.30;;;20.50;45.40;;;;;;4975075;28;20454;-70
2021/04/25 13:11:34;;;;;;;6.47;3.73;;;20.50;44.20;;;;;;4974780;28;20479;-71
2021/04/25 13:14:08;;;;;;;7.80;3.60;;;20.50;45.00;;;;;;4974632;28;20842;-70
2021/04/25 13:16:35;;;;;;;4.30;3.17;;;20.60;45.20;;;;;;4974562;28;20459;-69
2021/04/25 13:19:03;;;;;;;4.17;3.80;;;20.80;42.80;;;;;;4974335;28;20462;-71
2021/04/25 13:21:43;;;;;;;3.80;3.50;;;21.20;43.50;;;;;;4974436;28;20482;-71
2021/04/25 13:24:11;;;;;;;3.10;2.90;;;21.10;43.70;;;;;;4974746;28;20438;-71
2021/04/25 13:26:37;;;;;;;4.27;3.30;;;21.00;41.50;;;;;;4974817;28;20458;-71
2021/04/25 13:29:07;;;;;;;4.83;3.20;;;21.00;42.40;;;;;;4974930;28;20864;-70
2021/04/25 13:31:33;;;;;;;4.13;3.13;;;21.20;45.00;;;;;;4974298;28;21008;-70
2021/04/25 13:33:59;;;;;;;3.87;3.30;;;21.20;43.40;;;;;;4974823;28;20458;-70
2021/04/25 13:36:26;;;;;;;4.07;3.67;;;21.20;42.40;;;;;;4974840;28;20465;-70
2021/04/25 13:38:53;;;;;;;3.30;3.00;;;21.10;42.40;;;;;;4974736;28;20455;-70
2021/04/25 13:41:19;;;;;;;3.63;3.33;;;21.10;44.30;;;;;;4974597;28;20837;-70
2021/04/25 13:43:46;;;;;;;4.47;3.23;;;21.20;43.40;;;;;;4974837;28;20461;-69
2021/04/25 13:46:12;;;;;;;3.60;3.10;;;21.20;43.40;;;;;;4975050;28;20449;-70
2021/04/25 13:48:38;;;;;;;3.40;2.83;;;21.00;43.00;;;;;;4974347;28;20967;-70
2021/04/25 13:51:07;;;;;;;2.80;2.60;;;21.20;40.90;;;;;;4974507;28;20481;-70
2021/04/25 13:53:34;;;;;;;3.50;2.90;;;21.20;42.00;;;;;;4977352;28;20454;-70
2021/04/25 13:56:03;;;;;;;3.17;2.87;;;21.20;40.50;;;;;;4978083;28;20504;-70
2021/04/25 13:58:29;;;;;;;3.97;3.13;;;21.00;40.40;;;;;;4979275;28;20545;-69
2021/04/25 14:00:56;;;;;;;6.57;3.00;;;20.90;40.90;;;;;;4978762;28;20455;-70
2021/04/25 14:03:22;;;;;;;3.63;3.10;;;20.90;39.70;;;;;;4978355;28;20545;-67
2021/04/25 14:05:48;;;;;;;3.53;3.23;;;20.70;39.70;;;;;;4978299;28;20458;-67
2021/04/25 14:08:17;;;;;;;2.83;2.30;;;20.80;39.90;;;;;;4978273;28;20458;-68
2021/04/25 14:10:44;;;;;;;3.03;2.73;;;20.90;42.30;;;;;;4979067;28;20569;-68
2021/04/25 14:13:10;;;;;;;4.17;3.20;;;20.70;40.10;;;;;;4978308;28;20478;-68
2021/04/25 14:15:37;;;;;;;3.43;3.13;;;20.50;40.30;;;;;;4978042;28;20819;-68
2021/04/25 14:18:03;;;;;;;3.20;2.90;;;20.70;39.30;;;;;;4978170;28;20455;-67
2021/04/25 14:20:30;;;;;;;3.20;2.83;;;20.40;40.70;;;;;;4978161;28;20497;-67
2021/04/25 14:22:57;;;;;;;3.27;3.00;;;20.60;40.80;;;;;;4977645;28;20478;-68
2021/04/25 14:25:24;;;;;;;3.20;2.90;;;20.70;41.30;;;;;;4977768;28;20976;-68
2021/04/25 14:27:52;;;;;;;3.70;2.70;;;20.70;40.80;;;;;;4978122;28;20462;-68
2021/04/25 14:30:20;;;;;;;3.30;3.00;;;20.70;42.30;;;;;;4978141;28;20513;-68
2021/04/25 14:32:46;;;;;;;3.57;3.27;;;20.60;42.60;;;;;;4977835;28;20486;-67
2021/04/25 14:35:13;;;;;;;4.13;3.27;;;20.50;42.10;;;;;;4977852;28;20458;-66
2021/04/25 14:37:41;;;;;;;4.10;3.50;;;20.30;43.30;;;;;;4978069;28;20865;-66
2021/04/25 14:40:11;;;;;;;4.77;3.07;;;20.50;46.60;;;;;;4977856;28;20455;-67
2021/04/25 14:42:38;;;;;;;6.23;3.40;;;20.70;44.70;;;;;;4977629;28;20474;-66
2021/04/25 14:45:07;;;;;;;4.13;3.33;;;20.20;44.70;;;;;;4977622;28;20439;-66
2021/04/25 14:47:34;;;;;;;3.80;3.20;;;20.50;43.80;;;;;;4977575;28;20458;-65
2021/04/25 14:50:01;;;;;;;3.47;3.17;;;20.60;43.60;;;;;;4977304;28;20455;-66
2021/04/25 14:52:27;;;;;;;4.73;3.37;;;20.40;41.90;;;;;;4977091;28;20486;-65
2021/04/25 14:54:53;;;;;;;2.80;2.60;;;20.30;43.40;;;;;;4977383;28;20462;-66
2021/04/25 14:57:19;;;;;;;3.00;2.80;;;20.50;46.50;;;;;;4977463;28;20462;-65
2021/04/25 14:59:45;;;;;;;3.73;2.70;;;20.40;44.20;;;;;;4977315;28;20463;-65
2021/04/25 15:02:12;;;;;;;3.03;2.83;;;20.70;42.70;;;;;;4976932;28;20989;-67
2021/04/25 15:04:39;;;;;;;3.90;3.00;;;20.70;43.20;;;;;;4976093;28;20447;-67
2021/04/25 15:07:05;;;;;;;2.97;2.50;;;20.80;44.20;;;;;;4977235;28;20803;-67
2021/04/25 15:09:31;;;;;;;4.40;3.07;;;20.70;41.50;;;;;;4976730;28;20462;-67
2021/04/25 15:11:57;;;;;;;3.60;2.80;;;20.50;42.20;;;;;;4976892;28;20487;-67
2021/04/25 15:14:24;;;;;;;3.13;2.40;;;20.40;43.90;;;;;;4977146;28;20459;-69
2021/04/25 15:16:50;;;;;;;4.43;3.40;;;20.30;41.40;;;;;;4976957;28;20478;-68
2021/04/25 15:19:17;;;;;;;3.00;2.80;;;20.40;43.40;;;;;;4976586;28;20454;-68
2021/04/25 15:21:43;;;;;;;3.10;2.90;;;20.40;41.90;;;;;;4976557;28;20487;-69
2021/04/25 15:24:10;;;;;;;4.40;2.73;;;20.30;42.40;;;;;;4976652;28;20941;-67
2021/04/25 15:26:36;;;;;;;3.57;3.27;;;20.40;44.30;;;;;;4976492;28;20450;-68
2021/04/25 15:29:03;;;;;;;3.50;3.00;;;20.50;41.10;;;;;;4976758;28;20558;-68
2021/04/25 15:31:29;;;;;;;3.43;3.23;;;20.10;42.40;;;;;;4976860;28;20482;-68
2021/04/25 15:33:55;;;;;;;3.60;2.83;;;20.20;41.40;;;;;;4976973;28;20461;-68
2021/04/25 15:36:22;;;;;;;4.77;3.47;;;20.00;42.40;;;;;;4976859;28;20455;-66
2021/04/25 15:38:49;;;;;;;3.80;3.50;;;19.90;42.90;;;;;;4976781;28;20481;-67
2021/04/25 15:41:16;;;;;;;4.60;3.60;;;19.80;43.00;;;;;;4976912;28;20538;-68
2021/04/25 15:43:42;;;;;;;3.63;3.30;;;19.70;44.30;;;;;;4976289;28;20972;-68
2021/04/25 15:46:08;;;;;;;3.60;3.30;;;19.70;43.80;;;;;;4976591;28;20459;-69
2021/04/25 15:48:34;;;;;;;6.93;3.40;;;19.70;43.30;;;;;;4976451;28;20465;-69
2021/04/25 15:51:00;;;;;;;6.17;3.60;;;19.60;43.20;;;;;;4976053;28;20470;-67
2021/04/25 15:53:28;;;;;;;4.67;3.13;;;19.70;41.60;;;;;;4975780;28;21059;-67
2021/04/25 15:55:54;;;;;;;3.13;2.80;;;19.80;40.40;;;;;;4976055;28;20463;-66
2021/04/25 15:58:20;;;;;;;4.47;3.37;;;19.70;41.90;;;;;;4976100;28;20462;-67
2021/04/25 16:00:46;;;;;;;2.73;2.53;;;19.50;43.30;;;;;;4976034;28;20797;-66
2021/04/25 16:03:13;;;;;;;4.23;3.00;;;19.40;41.10;;;;;;4975912;28;20474;-65
2021/04/25 16:05:39;;;;;;;4.30;3.30;;;19.40;42.50;;;;;;4975731;28;20946;-65
2021/04/25 16:08:06;;;;;;;3.80;3.50;;;19.20;41.40;;;;;;4975773;28;20953;-66
2021/04/25 16:10:39;;;;;;;4.57;3.70;;;19.30;41.30;;;;;;4975813;28;20462;-66